Time;durP1;ratioP1;P1;durP2;ratioP2;P2;SDS_P1;SDS_P2;PMS_P1;PMS_P2;Temp;Humidity;BMP_temperature;BMP_pressure;BME280_temperature;BME280_humidity;BME280_pressure;Samples;Min_cycle;Max_cycle;Signal;HPM_P1;HPM_P2
2023/06/29 00:02:25;;;;;;;29.55;23.00;;;22.80;99.90;;;;;;5026053;28;20018;-72
2023/06/29 00:04:53;;;;;;;27.42;21.58;;;22.90;99.90;;;;;;5021702;28;20017;-71
2023/06/29 00:07:20;;;;;;;26.52;21.15;;;22.90;99.90;;;;;;5021131;28;20029;-71
2023/06/29 00:09:47;;;;;;;32.63;21.70;;;22.90;99.90;;;;;;5017253;28;20030;-72
2023/06/29 00:12:13;;;;;;;30.42;22.15;;;22.80;99.90;;;;;;5016035;28;20022;-71
2023/06/29 00:14:39;;;;;;;26.00;21.92;;;22.80;99.90;;;;;;5025705;28;20034;-71
2023/06/29 00:17:05;;;;;;;29.13;22.85;;;22.80;99.90;;;;;;5017097;28;20020;-68
2023/06/29 00:19:30;;;;;;;30.85;23.95;;;22.80;99.90;;;;;;5024433;28;20034;-69
2023/06/29 00:21:57;;;;;;;30.92;22.95;;;22.80;99.90;;;;;;5019001;28;20018;-66
2023/06/29 00:24:23;;;;;;;32.42;24.42;;;22.90;99.90;;;;;;5028749;28;20033;-68
2023/06/29 00:26:49;;;;;;;29.13;23.15;;;22.90;99.90;;;;;;5022487;28;20013;-66
2023/06/29 00:29:15;;;;;;;31.80;24.20;;;22.90;99.90;;;;;;5024854;28;20022;-66
2023/06/29 00:31:41;;;;;;;32.90;24.25;;;22.70;99.90;;;;;;5021975;28;20032;-66
2023/06/29 00:34:06;;;;;;;33.17;24.70;;;22.60;99.90;;;;;;5018110;28;20037;-66
2023/06/29 00:36:32;;;;;;;32.38;24.50;;;22.70;99.90;;;;;;5018735;28;20033;-67
2023/06/29 00:38:58;;;;;;;33.28;23.58;;;22.80;99.90;;;;;;5025931;28;20025;-67
2023/06/29 00:41:23;;;;;;;28.83;23.60;;;22.80;99.90;;;;;;5016621;28;20124;-66
2023/06/29 00:43:49;;;;;;;29.83;23.45;;;22.80;99.90;;;;;;5014961;28;20036;-65
2023/06/29 00:46:20;;;;;;;30.42;21.52;;;22.80;99.90;;;;;;5016155;28;20497;-66
2023/06/29 00:48:46;;;;;;;30.70;24.08;;;22.70;99.90;;;;;;5015229;28;20029;-65
2023/06/29 00:51:14;;;;;;;29.77;23.27;;;22.60;99.90;;;;;;5016860;28;20025;-65
2023/06/29 00:53:40;;;;;;;30.60;24.98;;;22.60;99.90;;;;;;5014813;28;20078;-66
2023/06/29 00:56:06;;;;;;;31.02;25.13;;;22.70;99.90;;;;;;5021163;28;20097;-66
2023/06/29 00:58:32;;;;;;;32.53;25.42;;;22.60;99.90;;;;;;5020334;28;20021;-66
2023/06/29 01:00:57;;;;;;;31.35;23.80;;;22.60;99.90;;;;;;5017976;28;20033;-66
2023/06/29 01:03:23;;;;;;;29.67;24.05;;;22.50;99.90;;;;;;5018595;28;20135;-65
2023/06/29 01:05:55;;;;;;;35.55;23.33;;;22.50;99.90;;;;;;5027527;28;20033;-66
2023/06/29 01:08:29;;;;;;;27.30;21.52;;;22.60;99.90;;;;;;5025455;28;20034;-66
2023/06/29 01:10:57;;;;;;;26.40;21.40;;;22.50;99.90;;;;;;5017339;28;20504;-65
2023/06/29 01:13:25;;;;;;;26.17;20.45;;;22.50;99.90;;;;;;5023250;28;20033;-67
2023/06/29 01:15:51;;;;;;;28.98;23.30;;;22.60;99.90;;;;;;5019522;28;20067;-66
2023/06/29 01:18:18;;;;;;;25.20;21.70;;;22.50;99.90;;;;;;5021512;28;20104;-65
2023/06/29 01:20:48;;;;;;;27.98;23.08;;;22.60;99.90;;;;;;5021394;28;20043;-66
2023/06/29 01:23:21;;;;;;;33.30;23.63;;;22.60;99.90;;;;;;5017439;28;20022;-65
2023/06/29 01:25:46;;;;;;;;;;;22.50;99.90;;;;;;5023024;28;20423;-66
2023/06/29 01:28:12;;;;;;;33.67;24.30;;;22.50;99.90;;;;;;5022796;28;19906;-66
2023/06/29 01:30:45;;;;;;;31.27;24.83;;;22.50;99.90;;;;;;5022899;28;20068;-67
2023/06/29 01:33:11;;;;;;;35.90;24.40;;;22.40;99.90;;;;;;5022917;28;20038;-68
2023/06/29 01:35:37;;;;;;;32.33;24.08;;;22.50;99.90;;;;;;5018142;28;20065;-66
2023/06/29 01:38:10;;;;;;;30.15;23.63;;;22.50;99.90;;;;;;5023462;28;20058;-66
2023/06/29 01:40:40;;;;;;;33.25;23.98;;;22.50;99.90;;;;;;5014811;28;20021;-68
2023/06/29 01:43:06;;;;;;;32.50;26.40;;;22.50;99.90;;;;;;5018701;28;20025;-66
2023/06/29 01:45:34;;;;;;;28.73;23.00;;;22.40;99.90;;;;;;5014638;28;20018;-67
2023/06/29 01:48:01;;;;;;;25.75;22.05;;;22.50;99.90;;;;;;5024295;28;20049;-68
2023/06/29 01:50:27;;;;;;;29.95;23.70;;;22.50;99.90;;;;;;5026241;28;20078;-66
2023/06/29 01:52:53;;;;;;;28.52;22.83;;;22.50;99.90;;;;;;5021897;28;20028;-66
2023/06/29 01:55:20;;;;;;;32.28;24.50;;;22.40;99.90;;;;;;5019184;28;20042;-66
2023/06/29 01:57:46;;;;;;;28.90;23.40;;;22.50;99.90;;;;;;5021376;28;20465;-66
2023/06/29 02:00:13;;;;;;;32.20;24.42;;;22.40;99.90;;;;;;5017377;28;20029;-66
2023/06/29 02:02:39;;;;;;;29.10;23.50;;;22.40;99.90;;;;;;5011628;28;20014;-67
2023/06/29 02:05:05;;;;;;;36.78;26.50;;;22.40;99.90;;;;;;5019229;28;20073;-66
2023/06/29 02:07:30;;;;;;;33.22;24.10;;;22.20;99.90;;;;;;5023398;28;20026;-66
2023/06/29 02:09:56;;;;;;;33.15;24.92;;;22.20;99.90;;;;;;5024325;28;20393;-66
2023/06/29 02:12:22;;;;;;;32.15;25.58;;;22.30;99.90;;;;;;5017630;28;20169;-66
2023/06/29 02:14:48;;;;;;;31.33;24.65;;;22.20;99.90;;;;;;5020974;28;20196;-66
2023/06/29 02:17:13;;;;;;;29.95;24.55;;;22.20;99.90;;;;;;5022834;28;20483;-66
2023/06/29 02:19:39;;;;;;;31.58;24.90;;;22.30;99.90;;;;;;5012001;28;20117;-66
2023/06/29 02:22:05;;;;;;;33.15;26.20;;;22.30;99.90;;;;;;5015681;28;20382;-66
2023/06/29 02:24:30;;;;;;;31.40;24.75;;;22.30;99.90;;;;;;5026828;28;20066;-66
2023/06/29 02:26:56;;;;;;;33.05;25.25;;;22.30;99.90;;;;;;5022781;28;20491;-72
2023/06/29 02:29:23;;;;;;;28.17;24.85;;;22.30;99.90;;;;;;5015857;28;20025;-73
2023/06/29 02:31:49;;;;;;;34.90;26.10;;;22.30;99.90;;;;;;5029297;28;20033;-73
2023/06/29 02:34:14;;;;;;;31.58;24.10;;;22.40;99.90;;;;;;5023615;28;20070;-70
2023/06/29 02:36:40;;;;;;;32.67;24.45;;;22.30;99.90;;;;;;5018225;28;20030;-70
2023/06/29 02:39:07;;;;;;;31.58;24.10;;;22.30;99.90;;;;;;5015407;28;20026;-73
2023/06/29 02:41:32;;;;;;;30.55;24.00;;;22.30;99.90;;;;;;5025867;28;20028;-71
2023/06/29 02:43:58;;;;;;;32.20;22.98;;;22.30;99.90;;;;;;5023455;28;20025;-72
2023/06/29 02:46:24;;;;;;;33.78;23.73;;;22.30;99.90;;;;;;5022339;28;20031;-70
2023/06/29 02:48:49;;;;;;;30.88;24.27;;;22.30;99.90;;;;;;5024299;28;20029;-71
2023/06/29 02:51:15;;;;;;;32.78;25.38;;;22.30;99.90;;;;;;5018189;28;20510;-70
2023/06/29 02:53:41;;;;;;;31.48;23.20;;;22.30;99.90;;;;;;5023869;28;20032;-72
2023/06/29 02:56:06;;;;;;;31.98;22.83;;;22.30;99.90;;;;;;5026337;28;20041;-69
2023/06/29 02:58:32;;;;;;;27.95;23.83;;;22.30;99.90;;;;;;5026390;28;20022;-72
2023/06/29 03:00:58;;;;;;;27.83;22.77;;;22.30;99.90;;;;;;5022342;28;20470;-72
2023/06/29 03:03:23;;;;;;;29.58;22.95;;;22.30;99.90;;;;;;5019765;28;20026;-72
2023/06/29 03:05:49;;;;;;;29.20;23.17;;;22.30;99.90;;;;;;5021399;28;20074;-73
2023/06/29 03:08:15;;;;;;;30.33;23.65;;;22.30;99.90;;;;;;5018652;28;20122;-72
2023/06/29 03:10:41;;;;;;;35.05;23.45;;;22.30;99.90;;;;;;5024523;28;20488;-74
2023/06/29 03:13:06;;;;;;;33.97;26.75;;;22.30;99.90;;;;;;5027337;28;20022;-72
2023/06/29 03:15:32;;;;;;;42.85;30.90;;;22.30;99.90;;;;;;5023638;28;20041;-71
2023/06/29 03:17:58;;;;;;;41.10;29.08;;;22.30;99.90;;;;;;5015706;28;20022;-73
2023/06/29 03:20:23;;;;;;;35.03;26.77;;;22.30;99.90;;;;;;5025462;28;20083;-71
2023/06/29 03:22:49;;;;;;;38.25;27.35;;;22.30;99.90;;;;;;5024656;28;20057;-72
2023/06/29 03:25:15;;;;;;;32.63;24.42;;;22.30;99.90;;;;;;5025738;28;20033;-70
2023/06/29 03:27:40;;;;;;;31.23;23.48;;;22.30;99.90;;;;;;5025028;28;20034;-72
2023/06/29 03:30:07;;;;;;;29.83;23.83;;;22.30;99.90;;;;;;5021687;28;20025;-72
2023/06/29 03:32:32;;;;;;;30.40;25.30;;;22.30;99.90;;;;;;5025141;28;20431;-70
2023/06/29 03:34:58;;;;;;;30.83;23.55;;;22.30;99.90;;;;;;5023953;28;20034;-69
2023/06/29 03:37:24;;;;;;;32.67;23.40;;;22.30;99.90;;;;;;5023916;28;20474;-72
2023/06/29 03:39:49;;;;;;;30.35;24.65;;;22.30;99.90;;;;;;5021040;28;20482;-68
2023/06/29 03:42:15;;;;;;;33.72;24.13;;;22.20;99.90;;;;;;5022716;28;20486;-73
2023/06/29 03:44:41;;;;;;;31.85;24.25;;;22.20;99.90;;;;;;5028506;28;20369;-73
2023/06/29 03:47:07;;;;;;;29.75;23.58;;;22.20;99.90;;;;;;5019935;28;20059;-74
2023/06/29 03:49:33;;;;;;;29.27;23.38;;;22.10;99.90;;;;;;5019323;28;20022;-72
2023/06/29 03:51:59;;;;;;;32.03;24.67;;;22.10;99.90;;;;;;5020910;28;20489;-73
2023/06/29 03:54:25;;;;;;;30.35;23.00;;;22.10;99.90;;;;;;5022872;28;20120;-71
2023/06/29 03:56:51;;;;;;;33.28;23.33;;;22.10;99.90;;;;;;5019680;28;20033;-72
2023/06/29 03:59:16;;;;;;;28.75;23.33;;;22.10;99.90;;;;;;5020788;28;20026;-73
2023/06/29 04:01:42;;;;;;;38.08;26.98;;;22.20;99.90;;;;;;5024133;28;20025;-73
2023/06/29 04:04:08;;;;;;;36.15;25.65;;;22.20;99.90;;;;;;5014721;28;20025;-73
2023/06/29 04:06:33;;;;;;;37.20;27.33;;;22.20;99.90;;;;;;5022658;28;20117;-72
2023/06/29 04:08:59;;;;;;;33.85;26.60;;;22.20;99.90;;;;;;5021178;28;20105;-70
2023/06/29 04:11:24;;;;;;;33.30;27.27;;;22.20;99.90;;;;;;5019029;28;20210;-70
2023/06/29 04:13:50;;;;;;;29.85;24.20;;;22.20;99.90;;;;;;5019029;28;20501;-73
2023/06/29 04:16:16;;;;;;;30.05;23.88;;;22.20;99.90;;;;;;5024521;28;20014;-74
2023/06/29 04:18:41;;;;;;;36.42;25.52;;;22.30;99.90;;;;;;5024184;28;20040;-73
2023/06/29 04:21:07;;;;;;;33.53;25.40;;;22.30;99.90;;;;;;5019462;28;20029;-71
2023/06/29 04:23:33;;;;;;;40.85;27.30;;;22.30;99.90;;;;;;5023370;28;20462;-71
2023/06/29 04:26:02;;;;;;;31.40;23.27;;;22.30;99.90;;;;;;5023254;28;20025;-73
2023/06/29 04:28:35;;;;;;;29.20;21.83;;;22.30;99.90;;;;;;5014833;28;20017;-73
2023/06/29 04:31:01;;;;;;;28.42;22.85;;;22.20;99.90;;;;;;5024079;28;20029;-74
2023/06/29 04:33:27;;;;;;;28.05;20.63;;;22.20;99.90;;;;;;5027491;28;20025;-73
2023/06/29 04:35:53;;;;;;;28.42;22.85;;;22.20;99.90;;;;;;5026382;28;20040;-72
2023/06/29 04:38:25;;;;;;;30.65;24.15;;;22.30;99.90;;;;;;5024149;28;20053;-73
2023/06/29 04:40:59;;;;;;;33.60;21.85;;;22.30;99.90;;;;;;5020514;28;20032;-73
2023/06/29 04:43:25;;;;;;;27.42;22.35;;;22.30;99.90;;;;;;5023093;28;20104;-73
2023/06/29 04:45:51;;;;;;;34.20;23.48;;;22.30;99.90;;;;;;5026897;28;20100;-73
2023/06/29 04:48:16;;;;;;;32.88;25.80;;;22.30;99.90;;;;;;5021819;28;20014;-69
2023/06/29 04:50:42;;;;;;;33.40;24.55;;;22.30;99.90;;;;;;5019062;28;20025;-72
2023/06/29 04:53:12;;;;;;;34.03;25.13;;;22.30;99.90;;;;;;5020169;28;20029;-73
2023/06/29 04:55:38;;;;;;;34.85;25.55;;;22.30;99.90;;;;;;5025890;28;20034;-73
2023/06/29 04:58:04;;;;;;;34.60;25.02;;;22.30;99.90;;;;;;5023589;28;20104;-74
2023/06/29 05:00:33;;;;;;;33.40;24.33;;;22.40;99.90;;;;;;5022385;28;20069;-74
2023/06/29 05:02:59;;;;;;;32.40;25.25;;;22.30;99.90;;;;;;5019740;28;20028;-73
2023/06/29 05:05:25;;;;;;;29.17;21.85;;;22.30;99.90;;;;;;5028395;28;20033;-74
2023/06/29 05:07:51;;;;;;;31.60;22.95;;;22.40;99.90;;;;;;5021734;28;20079;-73
2023/06/29 05:10:17;;;;;;;33.63;25.25;;;22.40;99.90;;;;;;5018520;28;20025;-73
2023/06/29 05:12:42;;;;;;;36.08;23.92;;;22.40;99.90;;;;;;5016336;28;20104;-73
2023/06/29 05:15:08;;;;;;;35.15;24.55;;;22.40;99.90;;;;;;5020553;28;20038;-73
2023/06/29 05:17:34;;;;;;;32.17;23.05;;;22.40;99.90;;;;;;5025928;28;20022;-73
2023/06/29 05:20:00;;;;;;;35.95;23.17;;;22.40;99.90;;;;;;5014647;28;20029;-74
2023/06/29 05:22:25;;;;;;;40.67;24.83;;;22.40;99.90;;;;;;5021980;28;20014;-72
2023/06/29 05:24:51;;;;;;;40.42;24.00;;;22.40;99.90;;;;;;5020132;28;20070;-74
2023/06/29 05:27:17;;;;;;;35.72;24.30;;;22.40;99.90;;;;;;5019552;28;20014;-73
2023/06/29 05:29:42;;;;;;;35.33;23.25;;;22.40;99.90;;;;;;5015744;28;20474;-71
2023/06/29 05:32:08;;;;;;;34.05;22.58;;;22.40;99.90;;;;;;5026849;28;20458;-67
2023/06/29 05:34:35;;;;;;;39.33;23.50;;;22.40;99.90;;;;;;5024732;28;20090;-67
2023/06/29 05:37:01;;;;;;;36.13;25.73;;;22.40;99.90;;;;;;5019749;28;20130;-67
2023/06/29 05:39:27;;;;;;;35.63;25.02;;;22.50;99.90;;;;;;5020103;28;20037;-67
2023/06/29 05:41:53;;;;;;;39.97;26.70;;;22.40;99.90;;;;;;5016026;28;20041;-67
2023/06/29 05:44:18;;;;;;;36.10;24.02;;;22.50;99.90;;;;;;5022713;28;20477;-67
2023/06/29 05:46:44;;;;;;;40.20;25.58;;;22.50;99.90;;;;;;5019138;28;20061;-67
2023/06/29 05:49:10;;;;;;;31.35;22.98;;;22.60;99.90;;;;;;5023613;28;20500;-66
2023/06/29 05:51:37;;;;;;;33.00;23.70;;;22.60;99.90;;;;;;5019276;28;20025;-67
2023/06/29 05:54:04;;;;;;;35.85;24.40;;;22.60;99.90;;;;;;5018951;28;20038;-67
2023/06/29 05:56:30;;;;;;;37.75;24.75;;;22.60;99.90;;;;;;5024035;28;20466;-67
2023/06/29 05:58:56;;;;;;;39.78;23.60;;;22.70;99.90;;;;;;5022569;28;20473;-67
2023/06/29 06:01:22;;;;;;;38.63;25.17;;;22.70;99.90;;;;;;5019285;28;20102;-67
2023/06/29 06:03:47;;;;;;;33.97;24.42;;;22.60;99.90;;;;;;5016815;28;20351;-67
2023/06/29 06:06:13;;;;;;;37.08;26.13;;;22.80;99.90;;;;;;5021529;28;20531;-67
2023/06/29 06:08:38;;;;;;;34.00;23.58;;;22.80;99.90;;;;;;5019017;28;20109;-67
2023/06/29 06:11:04;;;;;;;33.72;24.52;;;22.80;99.90;;;;;;5015054;28;20386;-66
2023/06/29 06:13:30;;;;;;;38.92;23.95;;;22.70;99.90;;;;;;5021348;28;20037;-67
2023/06/29 06:15:56;;;;;;;34.80;24.13;;;22.60;99.90;;;;;;5026187;28;20049;-66
2023/06/29 06:18:21;;;;;;;36.25;24.42;;;22.60;99.90;;;;;;5019648;28;20374;-67
2023/06/29 06:20:47;;;;;;;35.17;24.08;;;22.60;99.90;;;;;;5019022;28;20474;-67
2023/06/29 06:23:13;;;;;;;35.10;23.83;;;22.70;99.90;;;;;;5025630;28;20470;-67
2023/06/29 06:25:38;;;;;;;33.45;23.92;;;22.80;99.90;;;;;;5023792;28;20464;-66
2023/06/29 06:28:04;;;;;;;36.22;23.55;;;22.90;99.90;;;;;;5020240;28;20025;-67
2023/06/29 06:30:30;;;;;;;30.55;21.38;;;22.90;99.90;;;;;;5024882;28;20032;-67
2023/06/29 06:32:55;;;;;;;30.92;22.77;;;23.00;99.90;;;;;;5019079;28;20025;-66
2023/06/29 06:35:21;;;;;;;35.00;23.10;;;23.10;99.90;;;;;;5022837;28;20033;-67
2023/06/29 06:37:47;;;;;;;34.05;23.63;;;23.00;99.90;;;;;;5022671;28;20030;-67
2023/06/29 06:40:15;;;;;;;32.42;23.17;;;23.00;99.90;;;;;;5026545;28;20029;-67
2023/06/29 06:42:41;;;;;;;32.58;22.88;;;23.00;99.90;;;;;;5026502;28;20167;-67
2023/06/29 06:45:08;;;;;;;32.30;24.15;;;23.00;99.90;;;;;;5022627;28;20113;-67
2023/06/29 06:47:35;;;;;;;30.27;23.00;;;23.10;99.90;;;;;;5019995;28;20030;-67
2023/06/29 06:50:01;;;;;;;32.15;22.35;;;23.20;99.90;;;;;;5020859;28;20041;-66
2023/06/29 06:52:27;;;;;;;31.70;22.38;;;23.30;99.90;;;;;;5024083;28;20025;-67
2023/06/29 06:54:53;;;;;;;35.83;24.30;;;23.30;99.90;;;;;;5024479;28;21083;-68
2023/06/29 06:57:19;;;;;;;35.67;24.83;;;23.30;99.90;;;;;;5023662;28;20029;-66
2023/06/29 06:59:45;;;;;;;35.08;26.05;;;23.40;99.90;;;;;;5022729;28;20086;-66
2023/06/29 07:02:12;;;;;;;33.80;22.92;;;23.50;99.90;;;;;;5022850;28;20025;-66
2023/06/29 07:04:37;;;;;;;32.63;24.40;;;23.40;99.90;;;;;;5016669;28;20026;-67
2023/06/29 07:07:04;;;;;;;30.30;23.67;;;23.40;99.90;;;;;;5027072;28;20431;-66
2023/06/29 07:09:30;;;;;;;31.08;22.45;;;23.60;99.90;;;;;;5025911;28;20025;-67
2023/06/29 07:11:56;;;;;;;35.00;24.45;;;23.60;99.90;;;;;;5021956;28;20148;-66
2023/06/29 07:14:21;;;;;;;34.65;22.20;;;23.60;99.90;;;;;;5021093;28;20082;-66
2023/06/29 07:16:50;;;;;;;34.47;24.40;;;23.70;99.90;;;;;;5016740;28;20068;-66
2023/06/29 07:19:16;;;;;;;35.70;23.63;;;23.60;99.90;;;;;;5026487;28;20014;-66
2023/06/29 07:21:42;;;;;;;37.88;24.58;;;23.70;99.90;;;;;;5022685;28;20033;-66
2023/06/29 07:24:08;;;;;;;35.75;23.42;;;23.80;99.90;;;;;;5016315;28;20060;-67
2023/06/29 07:26:35;;;;;;;31.70;22.33;;;23.80;99.90;;;;;;5026083;28;20022;-66
2023/06/29 07:29:03;;;;;;;32.38;22.38;;;23.80;99.90;;;;;;5024418;28;20026;-67
2023/06/29 07:31:29;;;;;;;33.35;22.60;;;23.80;99.90;;;;;;5020976;28;20070;-67
2023/06/29 07:33:55;;;;;;;32.58;22.17;;;23.90;99.90;;;;;;5021351;28;20064;-67
2023/06/29 07:36:22;;;;;;;32.03;22.15;;;23.90;99.90;;;;;;5024566;28;20538;-67
2023/06/29 07:38:48;;;;;;;35.88;24.30;;;24.00;99.90;;;;;;5017893;28;20501;-67
2023/06/29 07:41:15;;;;;;;31.00;22.02;;;24.00;99.90;;;;;;5019660;28;20046;-66
2023/06/29 07:43:41;;;;;;;32.30;23.70;;;23.90;99.90;;;;;;5016820;28;20034;-68
2023/06/29 07:46:07;;;;;;;41.45;25.95;;;24.00;99.90;;;;;;5027356;28;20068;-67
2023/06/29 07:48:33;;;;;;;35.17;26.02;;;23.90;99.90;;;;;;5016643;28;20474;-66
2023/06/29 07:50:58;;;;;;;35.47;25.48;;;24.00;99.90;;;;;;5021448;28;20096;-67
2023/06/29 07:53:25;;;;;;;35.05;23.77;;;24.00;99.90;;;;;;5015406;28;20371;-67
2023/06/29 07:55:50;;;;;;;34.72;25.48;;;24.10;99.90;;;;;;5023778;28;20102;-67
2023/06/29 07:58:17;;;;;;;38.30;26.05;;;24.10;99.90;;;;;;5020203;28;20466;-68
2023/06/29 08:00:43;;;;;;;32.15;25.05;;;24.20;99.90;;;;;;5019176;28;20414;-69
2023/06/29 08:03:08;;;;;;;39.63;25.30;;;24.20;99.90;;;;;;5018232;28;20029;-66
2023/06/29 08:05:34;;;;;;;42.05;27.00;;;24.30;99.90;;;;;;5023255;28;20074;-67
2023/06/29 08:08:00;;;;;;;36.05;25.33;;;24.20;99.90;;;;;;5022411;28;20048;-67
2023/06/29 08:10:25;;;;;;;34.88;24.13;;;24.20;99.90;;;;;;5026960;28;20024;-66
2023/06/29 08:12:51;;;;;;;39.38;27.38;;;24.20;99.90;;;;;;5021934;28;20034;-66
2023/06/29 08:15:17;;;;;;;34.10;24.77;;;24.20;99.90;;;;;;5020373;28;20086;-66
2023/06/29 08:17:43;;;;;;;35.15;25.75;;;24.20;99.90;;;;;;5023908;28;20110;-66
2023/06/29 08:20:12;;;;;;;35.95;25.08;;;24.20;99.90;;;;;;5025148;28;20380;-71
2023/06/29 08:22:38;;;;;;;37.85;26.08;;;24.20;99.90;;;;;;5021187;28;20040;-69
2023/06/29 08:25:04;;;;;;;35.13;24.27;;;24.30;99.90;;;;;;5025125;28;20145;-66
2023/06/29 08:27:30;;;;;;;38.03;24.92;;;24.30;99.90;;;;;;5020519;28;20025;-66
2023/06/29 08:29:56;;;;;;;37.72;26.52;;;24.30;99.90;;;;;;5015314;28;20028;-66
2023/06/29 08:32:22;;;;;;;35.92;26.17;;;24.40;99.90;;;;;;5017824;28;20033;-71
2023/06/29 08:34:47;;;;;;;34.20;26.30;;;24.40;99.90;;;;;;5026660;28;20038;-68
2023/06/29 08:37:13;;;;;;;37.67;26.55;;;24.40;99.90;;;;;;5021493;28;20029;-68
2023/06/29 08:39:39;;;;;;;34.78;26.92;;;24.50;99.90;;;;;;5022832;28;20121;-68
2023/06/29 08:42:05;;;;;;;36.55;26.60;;;24.60;99.90;;;;;;5018562;28;20025;-65
2023/06/29 08:44:31;;;;;;;36.33;27.00;;;24.60;99.90;;;;;;5026128;28;20028;-67
2023/06/29 08:47:00;;;;;;;41.22;28.52;;;24.60;99.90;;;;;;5020113;28;20062;-69
2023/06/29 08:49:27;;;;;;;41.00;26.27;;;24.70;99.90;;;;;;5013262;28;20030;-66
2023/06/29 08:51:59;;;;;;;35.83;25.00;;;24.70;99.90;;;;;;5022552;28;20508;-69
2023/06/29 08:54:31;;;;;;;36.22;26.15;;;24.80;99.90;;;;;;5023628;28;20033;-68
2023/06/29 08:56:59;;;;;;;34.75;25.27;;;24.80;99.90;;;;;;5022122;28;20039;-67
2023/06/29 08:59:26;;;;;;;35.97;25.40;;;24.80;99.90;;;;;;5022009;28;20025;-66
2023/06/29 09:01:52;;;;;;;35.45;26.75;;;24.80;99.90;;;;;;5021172;28;20022;-67
2023/06/29 09:04:18;;;;;;;34.05;26.40;;;24.80;99.90;;;;;;5015381;28;20110;-69
2023/06/29 09:06:43;;;;;;;35.88;25.20;;;24.80;99.90;;;;;;5023476;28;20065;-67
2023/06/29 09:09:09;;;;;;;33.63;24.33;;;24.80;99.90;;;;;;5018607;28;20469;-67
2023/06/29 09:11:36;;;;;;;33.25;23.80;;;24.80;99.90;;;;;;5016257;28;20034;-69
2023/06/29 09:14:07;;;;;;;37.50;23.92;;;24.90;99.90;;;;;;5015967;28;20037;-65
2023/06/29 09:16:36;;;;;;;33.90;24.55;;;24.90;99.90;;;;;;5015493;28;20098;-68
2023/06/29 09:19:05;;;;;;;33.00;24.77;;;24.90;99.90;;;;;;5019240;28;20530;-67
2023/06/29 09:21:33;;;;;;;34.78;25.35;;;25.00;99.90;;;;;;5026264;28;20028;-65
2023/06/29 09:23:59;;;;;;;34.22;25.70;;;25.00;99.90;;;;;;5020536;28;20445;-65
2023/06/29 09:26:28;;;;;;;33.45;23.27;;;25.00;99.90;;;;;;5018787;28;20061;-67
2023/06/29 09:29:03;;;;;;;32.08;23.73;;;24.90;99.90;;;;;;5018015;28;20033;-67
2023/06/29 09:31:33;;;;;;;32.55;24.48;;;24.90;99.90;;;;;;5019830;28;20025;-66
2023/06/29 09:34:21;;;;;;;33.88;24.65;;;25.00;99.90;;;;;;5031117;28;20026;-67
2023/06/29 09:36:48;;;;;;;33.78;22.77;;;25.10;99.90;;;;;;5022854;28;20033;-68
2023/06/29 09:39:13;;;;;;;35.40;25.38;;;25.10;99.90;;;;;;5024051;28;20034;-67
2023/06/29 09:41:45;;;;;;;34.50;24.65;;;25.10;99.90;;;;;;5024225;28;20512;-67
2023/06/29 09:44:12;;;;;;;36.13;23.35;;;25.10;99.90;;;;;;5018547;28;20108;-69
2023/06/29 09:46:41;;;;;;;37.20;26.33;;;25.00;99.90;;;;;;5030958;28;20032;-68
2023/06/29 09:49:10;;;;;;;36.38;25.95;;;25.00;99.90;;;;;;5022120;28;20021;-66
2023/06/29 09:51:36;;;;;;;32.33;25.52;;;25.00;99.90;;;;;;5025559;28;20022;-70
2023/06/29 09:54:05;;;;;;;32.28;22.98;;;24.90;99.90;;;;;;5025839;28;20041;-67
2023/06/29 09:56:33;;;;;;;35.03;24.55;;;25.00;99.90;;;;;;5028850;28;20025;-68
2023/06/29 09:59:02;;;;;;;32.42;25.75;;;24.90;99.90;;;;;;5017733;28;20025;-67
2023/06/29 10:01:30;;;;;;;30.23;24.15;;;24.90;99.90;;;;;;5022619;28;20017;-68
2023/06/29 10:03:56;;;;;;;32.67;25.02;;;25.00;99.90;;;;;;5017102;28;20034;-68
2023/06/29 10:06:38;;;;;;;36.95;24.27;;;25.00;99.90;;;;;;5025314;28;20388;-67
2023/06/29 10:09:04;;;;;;;30.45;22.00;;;25.10;99.90;;;;;;5021063;28;20116;-66
2023/06/29 10:11:34;;;;;;;33.97;24.25;;;25.10;99.90;;;;;;5026177;28;20049;-66
2023/06/29 10:14:03;;;;;;;30.25;20.65;;;25.10;99.90;;;;;;5027613;28;20021;-67
2023/06/29 10:16:32;;;;;;;33.80;21.63;;;25.10;99.90;;;;;;5018717;28;20017;-68
2023/06/29 10:19:23;;;;;;;32.00;22.67;;;25.10;99.90;;;;;;5023493;28;20053;-72
2023/06/29 10:21:57;;;;;;;34.67;24.92;;;24.90;99.90;;;;;;5022903;28;20194;-69
2023/06/29 10:24:27;;;;;;;33.10;23.98;;;24.90;99.90;;;;;;5028469;28;20101;-66
2023/06/29 10:26:54;;;;;;;33.38;24.25;;;24.90;99.90;;;;;;5024279;28;20022;-71
2023/06/29 10:29:20;;;;;;;35.08;24.17;;;24.90;99.90;;;;;;5020789;28;20029;-69
2023/06/29 10:31:48;;;;;;;36.33;23.90;;;24.90;99.90;;;;;;5026369;28;20032;-67
2023/06/29 10:34:15;;;;;;;33.15;23.00;;;24.90;99.90;;;;;;5021645;28;20113;-67
2023/06/29 10:36:48;;;;;;;31.13;23.13;;;24.90;99.90;;;;;;5023185;28;20662;-67
2023/06/29 10:39:42;;;;;;;32.70;21.40;;;24.90;99.90;;;;;;5025832;28;20501;-66
2023/06/29 10:42:22;;;;;;;28.00;22.52;;;25.00;99.90;;;;;;5021760;28;20064;-66
2023/06/29 10:44:48;;;;;;;30.48;23.30;;;25.00;99.90;;;;;;5027318;28;20040;-66
2023/06/29 10:47:39;;;;;;;29.25;21.83;;;25.10;99.90;;;;;;5023374;28;20022;-68
2023/06/29 10:50:11;;;;;;;27.63;22.02;;;25.20;99.90;;;;;;5013448;28;20442;-67
2023/06/29 10:52:38;;;;;;;32.73;22.73;;;25.30;99.90;;;;;;5019669;28;20101;-67
2023/06/29 10:55:17;;;;;;;28.58;22.50;;;25.40;99.90;;;;;;5017348;28;20574;-68
2023/06/29 10:57:58;;;;;;;32.58;24.00;;;25.40;99.90;;;;;;5020443;28;20120;-67
2023/06/29 11:00:25;;;;;;;33.17;24.75;;;25.40;99.90;;;;;;5016099;28;20477;-67
2023/06/29 11:02:53;;;;;;;33.60;24.30;;;25.40;99.90;;;;;;5023983;28;20071;-68
2023/06/29 11:05:20;;;;;;;33.55;22.95;;;25.40;99.90;;;;;;5018308;28;20056;-67
2023/06/29 11:07:51;;;;;;;30.23;21.27;;;25.30;99.90;;;;;;5013816;28;20041;-67
2023/06/29 11:10:21;;;;;;;30.83;22.40;;;25.30;99.90;;;;;;5015743;28;20029;-67
2023/06/29 11:12:50;;;;;;;30.95;22.55;;;25.20;99.90;;;;;;5018548;28;20026;-68
2023/06/29 11:15:17;;;;;;;29.67;22.15;;;25.20;99.90;;;;;;5022387;28;20025;-69
2023/06/29 11:17:44;;;;;;;30.52;24.10;;;25.30;99.90;;;;;;5019325;28;20018;-69
2023/06/29 11:20:14;;;;;;;33.13;24.45;;;25.40;99.90;;;;;;5021793;28;20047;-67
2023/06/29 11:22:41;;;;;;;33.88;25.08;;;25.40;99.90;;;;;;5021814;28;20492;-68
2023/06/29 11:25:08;;;;;;;33.40;25.33;;;25.40;99.90;;;;;;5022094;28;20037;-68
2023/06/29 11:27:34;;;;;;;44.50;25.45;;;25.50;99.90;;;;;;5023479;28;20018;-66
2023/06/29 11:30:00;;;;;;;30.60;24.35;;;25.40;99.90;;;;;;5023445;28;20040;-68
2023/06/29 11:32:26;;;;;;;36.08;23.13;;;25.40;99.90;;;;;;5019061;28;20029;-68
2023/06/29 11:35:10;;;;;;;34.15;24.75;;;25.40;99.90;;;;;;5017099;28;20034;-67
2023/06/29 11:37:37;;;;;;;35.75;23.60;;;25.40;99.90;;;;;;5021958;28;20032;-66
2023/06/29 11:40:10;;;;;;;32.92;23.48;;;25.30;99.90;;;;;;5020153;28;20026;-67
2023/06/29 11:42:36;;;;;;;32.05;22.85;;;25.20;99.90;;;;;;5016920;28;20018;-67
2023/06/29 11:45:08;;;;;;;35.80;23.65;;;25.30;99.90;;;;;;5019929;28;20018;-66
2023/06/29 11:47:35;;;;;;;32.17;23.20;;;25.30;99.90;;;;;;5019324;28;20030;-69
2023/06/29 11:50:03;;;;;;;31.45;23.38;;;25.20;99.90;;;;;;5015693;28;20025;-66
2023/06/29 11:52:32;;;;;;;36.35;25.20;;;25.10;99.90;;;;;;5027723;28;20022;-66
2023/06/29 11:55:03;;;;;;;35.55;25.67;;;25.20;99.90;;;;;;5021549;28;20053;-66
2023/06/29 11:57:37;;;;;;;35.65;24.17;;;25.20;99.90;;;;;;5023246;28;20018;-67
2023/06/29 12:00:24;;;;;;;34.92;25.23;;;25.20;99.90;;;;;;5020967;28;20025;-68
2023/06/29 12:02:50;;;;;;;35.70;24.92;;;25.20;99.90;;;;;;5013191;28;20049;-68
2023/06/29 12:05:16;;;;;;;35.83;25.27;;;25.10;99.90;;;;;;5020204;28;20030;-68
2023/06/29 12:07:44;;;;;;;32.10;24.30;;;25.20;99.90;;;;;;5021204;28;20440;-66
2023/06/29 12:10:19;;;;;;;35.13;24.98;;;25.20;99.90;;;;;;5014905;28;20022;-66
2023/06/29 12:12:55;;;;;;;32.30;24.70;;;25.00;99.90;;;;;;5024985;28;20026;-68
2023/06/29 12:15:24;;;;;;;33.17;23.88;;;25.00;99.90;;;;;;5021056;28;20021;-66
2023/06/29 12:17:51;;;;;;;28.52;21.55;;;25.00;99.90;;;;;;5017761;28;20042;-67
2023/06/29 12:20:19;;;;;;;32.30;21.58;;;25.10;99.90;;;;;;5021234;28;20021;-66
2023/06/29 12:22:47;;;;;;;38.90;24.55;;;25.20;99.90;;;;;;5020427;28;20026;-69
2023/06/29 12:25:15;;;;;;;33.72;24.35;;;25.20;99.90;;;;;;5025904;28;20094;-66
2023/06/29 12:27:41;;;;;;;29.02;22.63;;;25.20;99.90;;;;;;5022988;28;20538;-66
2023/06/29 12:30:10;;;;;;;31.05;22.70;;;25.20;99.90;;;;;;5022143;28;20065;-67